Time;durP1;ratioP1;P1;durP2;ratioP2;P2;SDS_P1;SDS_P2;PMS_P1;PMS_P2;Temp;Humidity;BMP_temperature;BMP_pressure;BME280_temperature;BME280_humidity;BME280_pressure;Samples;Min_cycle;Max_cycle;Signal;HPM_P1;HPM_P2
2021/12/21 00:01:00;;;;;;;25.92;13.60;;;;;;;;;;5043518;28;20021;-78
2021/12/21 00:03:27;;;;;;;34.72;14.32;;;;;;;;;;5043099;28;20017;-76
2021/12/21 00:05:54;;;;;;;29.73;13.75;;;;;;;;;;5059940;28;20322;-75
2021/12/21 00:08:20;;;;;;;25.63;14.95;;;;;;;;;;5043087;28;20350;-76
2021/12/21 00:10:47;;;;;;;40.10;18.95;;;;;;;;;;5042897;28;20028;-77
2021/12/21 00:16:10;;;;;;;41.70;19.23;;;;;;;;;;5077168;28;20033;-76
2021/12/21 00:23:58;;;;;;;33.33;19.58;;;;;;;;;;5059706;28;20027;-75
2021/12/21 00:26:24;;;;;;;32.05;18.45;;;;;;;;;;5043162;28;20081;-75
2021/12/21 00:28:57;;;;;;;48.70;25.67;;;;;;;;;;5042750;28;20509;-76
2021/12/21 00:31:24;;;;;;;54.53;31.23;;;;;;;;;;5043000;28;20027;-76
2021/12/21 00:33:51;;;;;;;38.25;22.83;;;;;;;;;;5043337;28;20084;-75
2021/12/21 00:36:20;;;;;;;43.50;26.15;;;;;;;;;;5057785;28;20035;-75
2021/12/21 00:38:47;;;;;;;46.22;26.75;;;;;;;;;;5059158;28;20020;-75
2021/12/21 00:41:13;;;;;;;48.22;27.70;;;;;;;;;;5059117;28;20378;-76
2021/12/21 00:43:43;;;;;;;52.58;29.02;;;;;;;;;;5060372;28;20047;-76
2021/12/21 00:46:10;;;;;;;58.22;31.48;;;;;;;;;;5063352;28;20017;-76
2021/12/21 00:48:41;;;;;;;48.30;25.38;;;;;;;;;;5047229;28;20380;-76
2021/12/21 00:51:07;;;;;;;42.13;23.83;;;;;;;;;;5063597;28;20024;-76
2021/12/21 00:53:36;;;;;;;53.72;30.20;;;;;;;;;;5046540;28;20127;-76
2021/12/21 00:56:03;;;;;;;42.15;25.40;;;;;;;;;;5046533;28;20036;-75
2021/12/21 00:58:29;;;;;;;42.28;23.85;;;;;;;;;;5046491;28;20029;-75
2021/12/21 01:01:02;;;;;;;44.35;25.00;;;;;;;;;;5046830;28;20059;-74
2021/12/21 01:03:29;;;;;;;62.25;30.60;;;;;;;;;;5064084;28;20431;-75
2021/12/21 01:06:11;;;;;;;184.10;89.43;;;;;;;;;;5063784;28;20031;-75
2021/12/21 01:08:58;;;;;;;168.55;84.03;;;;;;;;;;5063112;28;20031;-75
2021/12/21 01:11:40;;;;;;;128.68;63.53;;;;;;;;;;5046456;28;20078;-75
2021/12/21 01:19:45;;;;;;;57.40;31.45;;;;;;;;;;5062829;28;20031;-76
2021/12/21 01:30:12;;;;;;;116.72;66.78;;;;;;;;;;5078603;28;20016;-75
2021/12/21 01:35:31;;;;;;;104.90;55.55;;;;;;;;;;5060951;28;20423;-76
2021/12/21 01:38:05;;;;;;;203.02;107.60;;;;;;;;;;5078997;28;20071;-76
2021/12/21 01:43:31;;;;;;;228.60;121.32;;;;;;;;;;5050198;28;20028;-76
2021/12/21 01:51:26;;;;;;;120.18;61.03;;;;;;;;;;5060813;28;20027;-78
2021/12/21 01:53:53;;;;;;;100.93;54.35;;;;;;;;;;5060086;28;20118;-76
2021/12/21 01:56:20;;;;;;;121.30;60.70;;;;;;;;;;5043762;28;20127;-77
2021/12/21 01:58:46;;;;;;;109.22;58.33;;;;;;;;;;5043960;28;20362;-77
2021/12/21 02:01:13;;;;;;;91.60;48.28;;;;;;;;;;5060318;28;20016;-75
2021/12/21 02:03:47;;;;;;;85.30;42.65;;;;;;;;;;5061589;28;20369;-77
2021/12/21 02:06:22;;;;;;;161.45;89.40;;;;;;;;;;5044610;28;20032;-78
2021/12/21 02:08:48;;;;;;;225.90;128.57;;;;;;;;;;5044789;28;20051;-77
2021/12/21 02:11:15;;;;;;;194.75;110.38;;;;;;;;;;5041053;28;20424;-79
2021/12/21 02:13:46;;;;;;;130.15;74.07;;;;;;;;;;5060248;28;20398;-78
2021/12/21 02:16:21;;;;;;;109.78;58.25;;;;;;;;;;5043908;28;20135;-77
2021/12/21 02:19:04;;;;;;;91.50;43.70;;;;;;;;;;5059994;28;20103;-76
2021/12/21 02:21:46;;;;;;;81.82;46.15;;;;;;;;;;5043255;28;20043;-76
2021/12/21 02:24:17;;;;;;;65.85;35.78;;;;;;;;;;5043490;28;20024;-76
2021/12/21 02:26:54;;;;;;;63.53;35.72;;;;;;;;;;5058883;28;20430;-76
2021/12/21 02:29:29;;;;;;;50.88;29.08;;;;;;;;;;5059580;28;20145;-77
2021/12/21 02:31:56;;;;;;;67.13;33.05;;;;;;;;;;5043512;28;20024;-77
2021/12/21 02:34:23;;;;;;;65.25;32.40;;;;;;;;;;5059110;28;20028;-77
2021/12/21 02:36:51;;;;;;;54.83;30.10;;;;;;;;;;5061059;28;20082;-76
2021/12/21 02:39:18;;;;;;;82.03;43.00;;;;;;;;;;5043446;28;20016;-76
2021/12/21 02:41:44;;;;;;;77.88;38.83;;;;;;;;;;5058993;28;20017;-75
2021/12/21 02:44:11;;;;;;;75.75;40.58;;;;;;;;;;5059120;28;20012;-76
2021/12/21 02:46:41;;;;;;;89.22;39.38;;;;;;;;;;5058501;28;20423;-75
2021/12/21 02:49:07;;;;;;;85.25;38.95;;;;;;;;;;5058918;28;20013;-76
2021/12/21 02:51:36;;;;;;;75.78;35.17;;;;;;;;;;5041411;28;20322;-77
2021/12/21 02:54:07;;;;;;;80.38;38.70;;;;;;;;;;5041644;28;20020;-76
2021/12/21 02:56:47;;;;;;;79.25;36.03;;;;;;;;;;5041038;28;20402;-76
2021/12/21 02:59:24;;;;;;;63.03;35.55;;;;;;;;;;5058363;28;20036;-77
2021/12/21 03:01:53;;;;;;;68.03;38.63;;;;;;;;;;5042978;28;20434;-77
2021/12/21 03:04:20;;;;;;;84.05;39.38;;;;;;;;;;5044124;28;20365;-78
2021/12/21 03:10:00;;;;;;;64.65;35.63;;;;;;;;;;4998084;28;20024;-75
2021/12/21 03:13:52;;;;;;;73.57;37.85;;;;;;;;;;4981025;28;20026;-74
2021/12/21 03:15:26;;;;;;;66.15;36.63;;;;;;;;;;5040947;28;20035;-75
2021/12/21 03:17:58;;;;;;;82.80;39.45;;;;;;;;;;5043151;28;20171;-75
2021/12/21 03:20:25;;;;;;;63.80;39.28;;;;;;;;;;5058058;28;20024;-75
2021/12/21 03:22:51;;;;;;;78.45;44.83;;;;;;;;;;5057922;28;20035;-76
2021/12/21 03:25:23;;;;;;;79.80;47.97;;;;;;;;;;5041733;28;20051;-76
2021/12/21 03:27:57;;;;;;;80.68;43.10;;;;;;;;;;5041885;28;20311;-75
2021/12/21 03:30:25;;;;;;;66.22;39.13;;;;;;;;;;5057759;28;20020;-77
2021/12/21 03:32:56;;;;;;;81.30;44.03;;;;;;;;;;5058595;28;20150;-76
2021/12/21 03:35:22;;;;;;;77.35;43.45;;;;;;;;;;5042168;28;20035;-76
2021/12/21 03:37:48;;;;;;;83.95;51.90;;;;;;;;;;5039272;28;20032;-77
2021/12/21 03:40:14;;;;;;;90.25;60.40;;;;;;;;;;5040325;28;20016;-76
2021/12/21 03:42:42;;;;;;;88.05;43.97;;;;;;;;;;5057810;28;20027;-75
2021/12/21 03:45:11;;;;;;;104.47;49.35;;;;;;;;;;5039630;28;20444;-75
2021/12/21 03:47:37;;;;;;;80.65;46.60;;;;;;;;;;5076712;28;20023;-76
2021/12/21 03:50:12;;;;;;;98.68;39.17;;;;;;;;;;5042821;28;20047;-75
2021/12/21 03:52:42;;;;;;;61.30;34.83;;;;;;;;;;5058433;28;20019;-75
2021/12/21 03:55:11;;;;;;;71.07;38.47;;;;;;;;;;5060650;28;20070;-77
2021/12/21 03:57:46;;;;;;;73.57;38.55;;;;;;;;;;5042926;28;20047;-77
2021/12/21 04:00:18;;;;;;;;;;;;;;;;;;5042466;28;20316;-78
2021/12/21 04:02:48;;;;;;;;;;;;;;;;;;5042305;28;19904;-76
2021/12/21 04:05:14;;;;;;;113.22;58.78;;;;;;;;;;5060380;28;19916;-77
2021/12/21 04:07:42;;;;;;;108.00;67.38;;;;;;;;;;5075218;28;20099;-75
2021/12/21 04:10:09;;;;;;;117.60;65.88;;;;;;;;;;5040481;28;20027;-76
2021/12/21 04:12:38;;;;;;;98.65;59.58;;;;;;;;;;5040630;28;20383;-76
2021/12/21 04:15:08;;;;;;;106.15;63.05;;;;;;;;;;5056371;28;20086;-75
2021/12/21 04:17:38;;;;;;;121.93;67.07;;;;;;;;;;5039363;28;20033;-75
2021/12/21 04:20:09;;;;;;;83.22;46.28;;;;;;;;;;5038626;28;20250;-76
2021/12/21 04:22:35;;;;;;;56.03;32.95;;;;;;;;;;5074385;28;20403;-76
2021/12/21 04:25:09;;;;;;;59.45;28.27;;;;;;;;;;5054630;28;20024;-78
2021/12/21 04:27:40;;;;;;;61.87;28.47;;;;;;;;;;5038877;28;20081;-77
2021/12/21 04:30:11;;;;;;;66.22;27.33;;;;;;;;;;5039437;28;20024;-77
2021/12/21 04:32:39;;;;;;;42.05;23.58;;;;;;;;;;5037463;28;20019;-77
2021/12/21 04:35:09;;;;;;;41.80;22.45;;;;;;;;;;5038276;28;20304;-77
2021/12/21 04:37:43;;;;;;;54.30;26.45;;;;;;;;;;5041689;28;20044;-77
2021/12/21 04:40:20;;;;;;;42.67;22.57;;;;;;;;;;5038570;28;20024;-77
2021/12/21 04:43:03;;;;;;;45.35;21.73;;;;;;;;;;5041701;28;20535;-77
2021/12/21 04:45:31;;;;;;;39.75;20.02;;;;;;;;;;5039023;28;20023;-77
2021/12/21 04:47:57;;;;;;;33.03;18.33;;;;;;;;;;5040742;28;20016;-77
2021/12/21 04:50:23;;;;;;;23.83;13.77;;;;;;;;;;5040033;28;20070;-78
2021/12/21 04:52:52;;;;;;;25.25;12.30;;;;;;;;;;5056699;28;20050;-78
2021/12/21 04:55:25;;;;;;;16.42;9.88;;;;;;;;;;5041147;28;20123;-76
2021/12/21 04:57:52;;;;;;;18.55;9.77;;;;;;;;;;5039795;28;20098;-79
2021/12/21 05:00:18;;;;;;;16.65;9.52;;;;;;;;;;5038523;28;20402;-77
2021/12/21 05:02:45;;;;;;;20.48;10.27;;;;;;;;;;5040464;28;20027;-77
2021/12/21 05:05:15;;;;;;;27.45;11.38;;;;;;;;;;5040625;28;20334;-77
2021/12/21 05:07:47;;;;;;;25.25;9.98;;;;;;;;;;5057191;28;20028;-77
2021/12/21 05:10:14;;;;;;;21.73;9.13;;;;;;;;;;5042185;28;20028;-79
2021/12/21 05:12:41;;;;;;;18.88;7.03;;;;;;;;;;5059162;28;20310;-77
2021/12/21 05:15:10;;;;;;;16.02;5.25;;;;;;;;;;5039766;28;20031;-78
2021/12/21 05:17:38;;;;;;;15.50;5.50;;;;;;;;;;5054180;28;20040;-77
2021/12/21 05:20:05;;;;;;;15.00;4.72;;;;;;;;;;5056861;28;20449;-77
2021/12/21 05:22:33;;;;;;;19.73;5.35;;;;;;;;;;5073782;28;20021;-78
2021/12/21 05:25:07;;;;;;;29.00;7.57;;;;;;;;;;5055931;28;20020;-78
2021/12/21 05:27:36;;;;;;;14.85;5.45;;;;;;;;;;5056344;28;20024;-79
2021/12/21 05:30:07;;;;;;;26.65;6.22;;;;;;;;;;5041378;28;20020;-78
2021/12/21 05:32:37;;;;;;;18.98;4.70;;;;;;;;;;5060993;28;20036;-78
2021/12/21 05:35:04;;;;;;;12.45;5.05;;;;;;;;;;5060791;28;20020;-78
2021/12/21 05:37:31;;;;;;;17.45;6.47;;;;;;;;;;5061537;28;20334;-77
2021/12/21 05:40:10;;;;;;;15.98;6.38;;;;;;;;;;5060018;28;20027;-77
2021/12/21 05:42:48;;;;;;;18.17;6.78;;;;;;;;;;5040778;28;20040;-76
2021/12/21 05:45:15;;;;;;;12.50;5.78;;;;;;;;;;5058940;28;20318;-78
2021/12/21 05:47:44;;;;;;;18.40;9.13;;;;;;;;;;5060647;28;20326;-77
2021/12/21 05:50:16;;;;;;;13.52;6.82;;;;;;;;;;5042798;28;20426;-76
2021/12/21 05:52:45;;;;;;;11.95;5.05;;;;;;;;;;5043914;28;20012;-78
2021/12/21 05:55:12;;;;;;;10.45;5.95;;;;;;;;;;5076952;28;20048;-76
2021/12/21 05:57:39;;;;;;;21.58;8.32;;;;;;;;;;5056988;28;20036;-78
2021/12/21 06:00:08;;;;;;;16.38;7.28;;;;;;;;;;5058592;28;20020;-79
2021/12/21 06:02:46;;;;;;;14.35;5.25;;;;;;;;;;5075396;28;20105;-78
2021/12/21 06:05:13;;;;;;;19.48;6.97;;;;;;;;;;5059794;28;20021;-77
2021/12/21 06:07:40;;;;;;;13.18;6.22;;;;;;;;;;5060327;28;20024;-78
2021/12/21 06:10:15;;;;;;;16.70;4.68;;;;;;;;;;5043310;28;20020;-78
2021/12/21 06:24:41;;;;;;;11.88;6.53;;;;;;;;;;5075273;28;20052;-77
2021/12/21 06:26:37;;;;;;;13.98;7.55;;;;;;;;;;5057177;28;20035;-79
2021/12/21 06:29:06;;;;;;;11.30;5.50;;;;;;;;;;5056484;28;20027;-78
2021/12/21 06:31:32;;;;;;;12.07;4.93;;;;;;;;;;5056721;28;20063;-79
2021/12/21 06:33:58;;;;;;;17.00;5.97;;;;;;;;;;5039324;28;20413;-78
2021/12/21 06:36:30;;;;;;;18.00;7.75;;;;;;;;;;5056413;28;20093;-78
2021/12/21 06:38:56;;;;;;;11.65;5.25;;;;;;;;;;5039446;28;20016;-77
2021/12/21 06:41:26;;;;;;;17.55;5.82;;;;;;;;;;5057539;28;20119;-77
2021/12/21 06:43:53;;;;;;;11.35;5.00;;;;;;;;;;5076386;28;20023;-77
2021/12/21 06:51:50;;;;;;;11.48;3.22;;;;;;;;;;5056038;28;20020;-77
2021/12/21 06:54:20;;;;;;;11.43;4.60;;;;;;;;;;5055980;28;20040;-77
2021/12/21 06:56:46;;;;;;;19.33;4.30;;;;;;;;;;5073631;28;20090;-78
2021/12/21 06:59:13;;;;;;;17.58;5.00;;;;;;;;;;4869555;28;4902472;-77
2021/12/21 07:01:41;;;;;;;7.60;3.33;;;;;;;;;;5057689;28;20059;-77
2021/12/21 07:04:10;;;;;;;10.02;3.50;;;;;;;;;;5040239;28;20024;-77
2021/12/21 07:06:38;;;;;;;7.55;2.97;;;;;;;;;;5040816;28;20189;-78
2021/12/21 07:09:15;;;;;;;6.45;3.33;;;;;;;;;;5056721;28;20017;-77
2021/12/21 07:11:54;;;;;;;7.55;3.67;;;;;;;;;;5042984;28;20016;-78
2021/12/21 07:19:56;;;;;;;22.63;6.60;;;;;;;;;;5060055;28;20017;-78
2021/12/21 07:22:24;;;;;;;11.90;4.20;;;;;;;;;;5056774;28;20047;-78
2021/12/21 07:24:50;;;;;;;24.73;7.07;;;;;;;;;;5040570;28;20013;-77
2021/12/21 07:27:17;;;;;;;31.25;7.05;;;;;;;;;;5056469;28;20040;-78
2021/12/21 07:29:44;;;;;;;18.02;5.03;;;;;;;;;;5073942;28;20422;-78
2021/12/21 07:32:14;;;;;;;9.00;3.80;;;;;;;;;;5056817;28;20119;-78
2021/12/21 07:34:41;;;;;;;17.45;4.68;;;;;;;;;;5075116;28;20320;-78
2021/12/21 07:37:13;;;;;;;19.02;5.75;;;;;;;;;;5039654;28;20124;-78
2021/12/21 07:39:45;;;;;;;12.32;4.35;;;;;;;;;;5054087;28;20055;-77
2021/12/21 07:42:12;;;;;;;21.80;5.97;;;;;;;;;;5056183;28;20368;-77
2021/12/21 07:44:43;;;;;;;13.30;4.07;;;;;;;;;;5057034;28;20027;-78
2021/12/21 07:47:11;;;;;;;19.65;4.70;;;;;;;;;;5056369;28;20016;-78
2021/12/21 07:49:41;;;;;;;14.00;3.75;;;;;;;;;;5041215;28;20027;-78
2021/12/21 07:52:10;;;;;;;9.52;4.60;;;;;;;;;;5040848;28;20028;-78
2021/12/21 07:54:43;;;;;;;14.68;3.67;;;;;;;;;;5041303;28;20035;-78
2021/12/21 07:57:10;;;;;;;14.73;4.05;;;;;;;;;;5152291;22;20019;-77
2021/12/21 07:59:37;;;;;;;29.55;6.72;;;;;;;;;;5111704;22;20068;-81
2021/12/21 08:02:04;;;;;;;12.60;2.85;;;;;;;;;;5078012;28;20103;-81
2021/12/21 08:04:31;;;;;;;10.98;2.42;;;;;;;;;;5079906;28;20012;-81
2021/12/21 08:07:04;;;;;;;6.78;2.38;;;;;;;;;;5060303;28;20028;-80
2021/12/21 08:09:39;;;;;;;7.40;2.63;;;;;;;;;;5045277;28;20055;-80
2021/12/21 08:12:16;;;;;;;10.75;2.60;;;;;;;;;;5085165;22;20040;-77
2021/12/21 08:14:43;;;;;;;9.60;3.22;;;;;;;;;;5161463;22;20124;-75
2021/12/21 08:17:09;;;;;;;22.52;4.22;;;;;;;;;;5058803;28;20138;-77
2021/12/21 08:19:35;;;;;;;15.98;3.45;;;;;;;;;;5076432;28;20391;-78
2021/12/21 08:22:01;;;;;;;10.07;3.17;;;;;;;;;;5077162;28;20041;-77
2021/12/21 08:24:29;;;;;;;12.50;4.78;;;;;;;;;;5112616;22;20051;-77
2021/12/21 08:26:59;;;;;;;11.90;2.80;;;;;;;;;;5108954;22;20064;-77
2021/12/21 08:29:25;;;;;;;12.57;3.97;;;;;;;;;;5104750;22;20044;-80
2021/12/21 08:31:51;;;;;;;9.20;2.60;;;;;;;;;;5079819;28;20016;-81
2021/12/21 08:34:17;;;;;;;23.98;3.90;;;;;;;;;;5085363;22;20028;-79
2021/12/21 08:36:44;;;;;;;10.10;3.33;;;;;;;;;;5088788;22;20410;-79
2021/12/21 08:39:10;;;;;;;10.55;3.63;;;;;;;;;;5080134;28;20052;-77
2021/12/21 08:41:42;;;;;;;10.77;4.88;;;;;;;;;;5079787;28;20020;-77
2021/12/21 08:44:10;;;;;;;16.63;3.58;;;;;;;;;;5076714;28;20033;-76
2021/12/21 08:46:37;;;;;;;12.75;3.55;;;;;;;;;;5075332;28;20042;-80
2021/12/21 08:49:03;;;;;;;11.75;2.97;;;;;;;;;;5076695;28;20023;-77
2021/12/21 08:51:29;;;;;;;8.93;3.45;;;;;;;;;;5074991;28;20020;-76
2021/12/21 08:53:55;;;;;;;4.65;2.38;;;;;;;;;;5074180;28;20445;-75
2021/12/21 08:56:21;;;;;;;7.95;3.13;;;;;;;;;;5075064;28;20025;-76
2021/12/21 08:58:50;;;;;;;7.20;2.92;;;;;;;;;;5074051;28;20020;-76
2021/12/21 09:01:17;;;;;;;6.25;2.72;;;;;;;;;;5082965;28;20016;-76
2021/12/21 09:03:43;;;;;;;10.15;3.83;;;;;;;;;;5074686;28;20027;-76
2021/12/21 09:06:09;;;;;;;16.08;4.28;;;;;;;;;;5077604;28;20089;-75
2021/12/21 09:08:35;;;;;;;14.20;3.45;;;;;;;;;;5078707;28;20017;-76
2021/12/21 09:11:05;;;;;;;14.52;4.13;;;;;;;;;;5079331;28;20020;-76
2021/12/21 09:13:34;;;;;;;19.02;3.92;;;;;;;;;;5061222;28;20024;-76
2021/12/21 09:16:00;;;;;;;18.83;4.90;;;;;;;;;;5062028;28;20024;-75
2021/12/21 09:18:26;;;;;;;12.27;3.78;;;;;;;;;;5061563;28;20074;-74
2021/12/21 09:20:52;;;;;;;18.77;4.10;;;;;;;;;;5060647;28;20106;-75
2021/12/21 09:23:18;;;;;;;13.55;3.47;;;;;;;;;;5059493;28;20099;-75
2021/12/21 09:25:44;;;;;;;17.48;4.45;;;;;;;;;;5077150;28;20099;-76
2021/12/21 09:28:10;;;;;;;14.15;3.67;;;;;;;;;;5077815;28;20100;-75
2021/12/21 09:30:36;;;;;;;19.25;4.13;;;;;;;;;;5078339;28;20179;-76
2021/12/21 09:33:02;;;;;;;14.18;4.18;;;;;;;;;;5077968;28;20027;-76
2021/12/21 09:35:28;;;;;;;14.05;4.45;;;;;;;;;;5077942;28;20400;-75
2021/12/21 09:37:54;;;;;;;12.50;3.70;;;;;;;;;;5077792;28;20036;-76
2021/12/21 09:40:25;;;;;;;26.15;6.93;;;;;;;;;;5078696;28;20081;-76
2021/12/21 09:42:51;;;;;;;23.35;3.95;;;;;;;;;;5079754;28;20043;-76
2021/12/21 09:45:18;;;;;;;13.57;4.35;;;;;;;;;;5061754;28;20395;-76
2021/12/21 09:47:44;;;;;;;12.10;4.57;;;;;;;;;;5078799;28;20377;-76
2021/12/21 09:50:13;;;;;;;15.38;4.78;;;;;;;;;;5079590;28;20017;-77
2021/12/21 09:52:39;;;;;;;16.25;4.88;;;;;;;;;;5061166;28;20016;-76
2021/12/21 09:55:07;;;;;;;11.52;4.03;;;;;;;;;;5078079;28;20398;-76
2021/12/21 09:57:33;;;;;;;20.65;4.30;;;;;;;;;;5079067;28;20039;-76
2021/12/21 09:59:59;;;;;;;8.75;2.78;;;;;;;;;;5061130;28;20342;-76
2021/12/21 10:02:26;;;;;;;23.02;3.90;;;;;;;;;;5079497;28;20020;-76
2021/12/21 10:04:55;;;;;;;19.40;5.75;;;;;;;;;;5061711;28;20322;-76
2021/12/21 10:07:22;;;;;;;22.08;6.32;;;;;;;;;;5078826;28;20430;-76
2021/12/21 10:09:50;;;;;;;20.30;6.35;;;;;;;;;;5078262;28;20028;-76
2021/12/21 10:12:29;;;;;;;24.65;7.68;;;;;;;;;;5078966;28;20472;-76
2021/12/21 10:15:06;;;;;;;19.83;6.40;;;;;;;;;;5078514;28;20055;-76
2021/12/21 10:17:33;;;;;;;21.45;5.63;;;;;;;;;;5079286;28;20116;-76
2021/12/21 10:20:00;;;;;;;17.27;5.63;;;;;;;;;;5078922;28;20107;-76
2021/12/21 10:22:26;;;;;;;22.15;5.22;;;;;;;;;;5079300;28;20024;-76
2021/12/21 10:24:53;;;;;;;17.23;5.30;;;;;;;;;;5078586;28;20117;-76
2021/12/21 10:27:20;;;;;;;21.70;5.50;;;;;;;;;;5063613;28;20020;-76
2021/12/21 10:29:50;;;;;;;15.57;3.97;;;;;;;;;;5078917;28;20388;-76
2021/12/21 10:32:27;;;;;;;17.73;5.75;;;;;;;;;;5078288;28;20020;-76
2021/12/21 10:34:53;;;;;;;30.95;6.63;;;;;;;;;;5079120;28;20028;-76
2021/12/21 10:37:30;;;;;;;22.83;5.15;;;;;;;;;;5078437;28;20120;-76
2021/12/21 10:40:04;;;;;;;15.00;4.47;;;;;;;;;;5044605;28;20024;-75
2021/12/21 10:42:30;;;;;;;18.35;5.00;;;;;;;;;;5079012;28;20124;-76
2021/12/21 10:45:05;;;;;;;21.10;5.57;;;;;;;;;;5078503;28;20445;-76
2021/12/21 10:47:32;;;;;;;19.65;6.88;;;;;;;;;;5079558;28;20430;-76
2021/12/21 10:49:58;;;;;;;13.38;6.22;;;;;;;;;;5078937;28;20062;-76
2021/12/21 10:52:24;;;;;;;25.15;7.05;;;;;;;;;;5078260;28;20031;-75
2021/12/21 10:54:50;;;;;;;19.63;5.18;;;;;;;;;;5060834;28;20434;-76
2021/12/21 10:57:21;;;;;;;23.65;4.13;;;;;;;;;;5078038;28;20115;-76
2021/12/21 10:59:47;;;;;;;;;;;;;;;;;;5078931;28;20071;-76
2021/12/21 11:02:20;;;;;;;14.18;3.72;;;;;;;;;;5078564;28;19936;-76
2021/12/21 11:04:51;;;;;;;22.27;5.97;;;;;;;;;;5060606;28;20069;-76
2021/12/21 11:07:28;;;;;;;24.90;5.75;;;;;;;;;;5078389;28;20430;-76
2021/12/21 11:10:15;;;;;;;31.85;6.38;;;;;;;;;;5060545;28;20057;-75
2021/12/21 11:12:42;;;;;;;21.98;6.95;;;;;;;;;;5078391;28;20029;-75
2021/12/21 11:15:16;;;;;;;28.40;6.57;;;;;;;;;;5078230;28;20040;-76
2021/12/21 11:17:42;;;;;;;20.98;5.60;;;;;;;;;;5060169;28;20033;-75
2021/12/21 11:20:09;;;;;;;14.50;6.05;;;;;;;;;;5077927;28;20480;-76
2021/12/21 11:22:37;;;;;;;14.48;5.20;;;;;;;;;;5077716;28;20066;-76
2021/12/21 11:25:03;;;;;;;9.60;4.63;;;;;;;;;;5060303;28;20027;-75
2021/12/21 11:27:31;;;;;;;22.33;7.38;;;;;;;;;;5061297;28;20386;-76
2021/12/21 11:30:01;;;;;;;18.08;6.38;;;;;;;;;;5078792;28;20473;-76
2021/12/21 11:32:29;;;;;;;20.60;7.90;;;;;;;;;;5078080;28;20017;-76
2021/12/21 11:37:56;;;;;;;19.58;7.57;;;;;;;;;;5033765;28;20327;-75
2021/12/21 11:40:24;;;;;;;17.25;6.50;;;;;;;;;;5077774;28;20020;-76
2021/12/21 11:42:50;;;;;;;20.95;7.63;;;;;;;;;;5077840;28;20430;-76
2021/12/21 11:45:15;;;;;;;15.90;8.52;;;;;;;;;;5079617;28;20115;-76
2021/12/21 11:48:05;;;;;;;15.25;6.40;;;;;;;;;;5077775;28;20402;-76
2021/12/21 11:50:31;;;;;;;25.65;6.15;;;;;;;;;;5064860;28;20396;-76
2021/12/21 11:53:01;;;;;;;22.15;6.20;;;;;;;;;;5077658;28;20020;-76
2021/12/21 11:55:29;;;;;;;12.98;6.07;;;;;;;;;;5076912;28;20025;-76
2021/12/21 11:57:56;;;;;;;21.40;8.82;;;;;;;;;;5059657;28;20035;-76
2021/12/21 12:00:24;;;;;;;16.70;10.25;;;;;;;;;;5077465;28;20500;-76
2021/12/21 12:02:51;;;;;;;33.55;9.45;;;;;;;;;;5059544;28;20043;-76
2021/12/21 12:05:20;;;;;;;28.10;12.07;;;;;;;;;;5059744;28;20046;-76
2021/12/21 12:07:46;;;;;;;19.88;10.82;;;;;;;;;;5077467;28;20341;-76
2021/12/21 12:10:16;;;;;;;22.30;10.80;;;;;;;;;;5059485;28;20121;-75
2021/12/21 12:12:42;;;;;;;21.17;12.57;;;;;;;;;;5077392;28;20020;-76
2021/12/21 12:15:09;;;;;;;23.35;11.73;;;;;;;;;;5076892;28;20245;-76
2021/12/21 12:17:51;;;;;;;24.23;11.82;;;;;;;;;;5077379;28;20086;-76
2021/12/21 12:20:25;;;;;;;29.73;12.80;;;;;;;;;;5059532;28;20020;-76
2021/12/21 12:23:01;;;;;;;30.90;14.60;;;;;;;;;;5076749;28;20016;-76
2021/12/21 12:25:27;;;;;;;27.20;14.07;;;;;;;;;;5059439;28;20316;-76
2021/12/21 12:27:54;;;;;;;20.33;12.60;;;;;;;;;;5059715;28;20024;-76
2021/12/21 12:30:22;;;;;;;18.20;11.10;;;;;;;;;;5077292;28;20082;-76
2021/12/21 12:32:55;;;;;;;18.88;9.75;;;;;;;;;;5077230;28;20147;-76
2021/12/21 12:35:22;;;;;;;23.45;11.57;;;;;;;;;;5058881;28;20338;-76
2021/12/21 12:37:49;;;;;;;22.20;11.57;;;;;;;;;;5076435;28;20033;-75
2021/12/21 12:40:16;;;;;;;40.60;11.63;;;;;;;;;;5084158;28;20024;-75
2021/12/21 12:42:52;;;;;;;21.80;9.63;;;;;;;;;;5083757;28;20023;-75
2021/12/21 12:45:20;;;;;;;12.80;7.60;;;;;;;;;;5083730;28;20070;-76
2021/12/21 12:47:49;;;;;;;15.57;6.63;;;;;;;;;;5065929;28;20020;-76
2021/12/21 12:50:16;;;;;;;20.48;7.60;;;;;;;;;;5083745;28;20020;-76
2021/12/21 12:52:59;;;;;;;15.93;7.22;;;;;;;;;;5083715;28;20016;-76
2021/12/21 12:55:35;;;;;;;17.55;7.97;;;;;;;;;;5083973;28;20027;-76
2021/12/21 12:58:04;;;;;;;20.63;7.45;;;;;;;;;;5083598;28;20070;-76
2021/12/21 13:00:32;;;;;;;14.20;6.18;;;;;;;;;;5083748;28;20024;-76
2021/12/21 13:03:03;;;;;;;14.40;6.57;;;;;;;;;;5065703;28;20020;-76
2021/12/21 13:05:34;;;;;;;16.20;7.97;;;;;;;;;;5083543;28;20039;-76
2021/12/21 13:07:59;;;;;;;;;;;;;;;;;;5083614;28;20365;-75
2021/12/21 13:10:26;;;;;;;16.85;7.82;;;;;;;;;;5083650;28;19926;-76
2021/12/21 13:12:56;;;;;;;19.52;6.10;;;;;;;;;;5065581;28;20067;-76
2021/12/21 13:15:31;;;;;;;16.88;6.22;;;;;;;;;;5085490;28;20129;-76
2021/12/21 13:18:04;;;;;;;18.58;8.93;;;;;;;;;;5084202;28;20469;-75
2021/12/21 13:20:30;;;;;;;24.80;7.50;;;;;;;;;;5065438;28;20073;-76
2021/12/21 13:22:56;;;;;;;24.00;8.77;;;;;;;;;;5083462;28;20025;-76
2021/12/21 13:25:22;;;;;;;22.67;9.13;;;;;;;;;;5065402;28;20070;-76
2021/12/21 13:27:48;;;;;;;19.77;9.07;;;;;;;;;;5083468;28;20020;-77
2021/12/21 13:30:17;;;;;;;19.92;9.35;;;;;;;;;;5083393;28;20369;-75
2021/12/21 13:32:43;;;;;;;23.50;8.73;;;;;;;;;;5083493;28;20050;-75
2021/12/21 13:35:14;;;;;;;20.25;9.45;;;;;;;;;;5083543;28;20048;-76
2021/12/21 13:37:40;;;;;;;17.70;7.82;;;;;;;;;;5083176;28;20059;-76
2021/12/21 13:40:06;;;;;;;21.83;10.55;;;;;;;;;;5064971;28;20075;-76
2021/12/21 13:42:32;;;;;;;20.05;9.27;;;;;;;;;;5065097;28;20020;-76
2021/12/21 13:44:59;;;;;;;20.58;6.72;;;;;;;;;;5083376;28;20051;-75
2021/12/21 13:47:43;;;;;;;23.48;6.72;;;;;;;;;;5083326;28;20103;-75
2021/12/21 13:50:13;;;;;;;22.45;7.97;;;;;;;;;;5081594;28;20017;-76
2021/12/21 13:52:39;;;;;;;;;;;;;;;;;;5079931;28;20450;-76
2021/12/21 13:55:06;;;;;;;25.88;7.38;;;;;;;;;;5079554;28;19970;-76
2021/12/21 13:57:33;;;;;;;15.13;5.68;;;;;;;;;;5080040;28;20035;-76
2021/12/21 14:00:06;;;;;;;23.63;5.63;;;;;;;;;;5079968;28;20062;-76
2021/12/21 14:02:37;;;;;;;19.95;7.35;;;;;;;;;;5079968;28;20391;-76
2021/12/21 14:05:04;;;;;;;;;;;;;;;;;;5080345;28;20361;-76
2021/12/21 14:07:32;;;;;;;32.33;7.78;;;;;;;;;;5080214;28;19904;-75
2021/12/21 14:10:02;;;;;;;21.08;7.25;;;;;;;;;;5079803;28;20416;-76
2021/12/21 14:12:28;;;;;;;17.17;5.85;;;;;;;;;;5079776;28;20411;-76
2021/12/21 14:14:54;;;;;;;29.80;8.00;;;;;;;;;;5079700;28;20025;-76
2021/12/21 14:17:20;;;;;;;24.85;6.22;;;;;;;;;;5079611;28;20043;-76
2021/12/21 14:19:54;;;;;;;18.83;6.90;;;;;;;;;;5079032;28;20044;-76
2021/12/21 14:22:20;;;;;;;9.60;5.32;;;;;;;;;;5082373;28;20435;-76
2021/12/21 14:24:48;;;;;;;21.13;6.38;;;;;;;;;;5061678;28;20097;-76
2021/12/21 14:27:14;;;;;;;21.95;6.85;;;;;;;;;;5079259;28;20315;-76
2021/12/21 14:29:42;;;;;;;24.50;7.25;;;;;;;;;;5061112;28;20062;-76
2021/12/21 14:34:37;;;;;;;21.92;7.10;;;;;;;;;;5078888;28;20033;-76
2021/12/21 14:37:13;;;;;;;15.98;6.13;;;;;;;;;;5079108;28;20037;-76
2021/12/21 14:39:46;;;;;;;24.00;6.65;;;;;;;;;;5079217;28;20038;-76
2021/12/21 14:42:17;;;;;;;9.82;4.15;;;;;;;;;;5079238;28;20017;-76
2021/12/21 14:44:43;;;;;;;;;;;;;;;;;;5079657;28;20074;-76
2021/12/21 14:47:12;;;;;;;23.60;5.68;;;;;;;;;;5079082;28;20298;-76
2021/12/21 14:49:50;;;;;;;14.95;5.28;;;;;;;;;;5078976;28;20024;-76
2021/12/21 14:55:10;;;;;;;23.05;6.22;;;;;;;;;;5064972;28;20063;-76
2021/12/21 14:57:38;;;;;;;22.77;5.40;;;;;;;;;;5078270;28;20070;-76
2021/12/21 15:00:08;;;;;;;24.55;6.15;;;;;;;;;;5080006;28;20017;-76
2021/12/21 15:05:02;;;;;;;24.75;7.82;;;;;;;;;;5078694;28;20025;-76
2021/12/21 15:07:28;;;;;;;12.98;4.30;;;;;;;;;;5078713;28;20036;-76
2021/12/21 15:09:55;;;;;;;17.38;3.97;;;;;;;;;;5078713;28;20107;-76
2021/12/21 15:12:20;;;;;;;23.40;5.30;;;;;;;;;;5078663;28;20345;-76
2021/12/21 15:14:47;;;;;;;15.25;5.55;;;;;;;;;;5078494;28;20025;-76
2021/12/21 15:17:13;;;;;;;26.42;6.00;;;;;;;;;;5060526;28;20028;-76
2021/12/21 15:19:39;;;;;;;22.75;5.60;;;;;;;;;;5078423;28;20016;-76
2021/12/21 15:22:05;;;;;;;23.88;5.40;;;;;;;;;;5078452;28;20103;-76
2021/12/21 15:24:31;;;;;;;29.95;5.65;;;;;;;;;;5060698;28;20419;-76
2021/12/21 15:26:57;;;;;;;18.65;3.88;;;;;;;;;;5063404;28;20329;-77
2021/12/21 15:29:23;;;;;;;11.85;4.25;;;;;;;;;;5088258;28;20111;-76
2021/12/21 15:31:49;;;;;;;16.35;5.18;;;;;;;;;;5086978;28;20017;-77
2021/12/21 15:34:15;;;;;;;10.55;4.20;;;;;;;;;;5069471;28;20346;-77
2021/12/21 15:36:43;;;;;;;16.00;4.30;;;;;;;;;;5081660;28;20563;-77
2021/12/21 15:39:16;;;;;;;11.88;3.53;;;;;;;;;;5063383;28;20028;-76
2021/12/21 15:41:46;;;;;;;24.13;5.95;;;;;;;;;;5081716;28;20363;-77
2021/12/21 15:44:11;;;;;;;23.55;6.53;;;;;;;;;;5078308;28;20111;-77
2021/12/21 15:46:37;;;;;;;52.75;10.18;;;;;;;;;;5081704;28;20043;-76
2021/12/21 15:49:03;;;;;;;16.73;7.93;;;;;;;;;;5069066;28;20039;-76